Time;durP1;ratioP1;P1;durP2;ratioP2;P2;SDS_P1;SDS_P2;PMS_P1;PMS_P2;Temp;Humidity;BMP_temperature;BMP_pressure;BME280_temperature;BME280_humidity;BME280_pressure;Samples;Min_cycle;Max_cycle;Signal;HPM_P1;HPM_P2
2022/08/08 00:01:16;;;;;;;2.55;0.88;;;;;;;;;;5091818;28;20028;-58
2022/08/08 00:04:00;;;;;;;1.30;0.68;;;;;;;;;;5095595;28;20040;-58
2022/08/08 00:06:46;;;;;;;1.42;0.80;;;;;;;;;;5095227;28;20059;-58
2022/08/08 00:09:25;;;;;;;;;;;;;;;;;;;;;
2022/08/08 00:12:31;;;;;;;;;;;;;;;;;;;;;
2022/08/08 00:15:16;;;;;;;1.08;0.57;;;;;;;;;;5092828;28;20038;-58
2022/08/08 00:17:57;;;;;;;1.70;0.82;;;;;;;;;;5095618;28;20032;-58
2022/08/08 00:20:42;;;;;;;0.82;0.50;;;;;;;;;;5104500;28;20020;-58
2022/08/08 00:23:19;;;;;;;1.55;1.20;;;;;;;;;;5116397;28;20435;-58
2022/08/08 00:25:50;;;;;;;2.38;0.98;;;;;;;;;;5097217;28;20036;-58
2022/08/08 00:28:24;;;;;;;1.75;0.90;;;;;;;;;;5116456;28;20072;-58
2022/08/08 00:31:14;;;;;;;1.77;0.80;;;;;;;;;;5097260;28;20027;-58
2022/08/08 00:33:49;;;;;;;1.00;0.55;;;;;;;;;;5115596;28;20034;-58
2022/08/08 00:36:23;;;;;;;1.45;0.75;;;;;;;;;;5115732;28;20020;-58
2022/08/08 00:39:13;;;;;;;2.20;0.98;;;;;;;;;;5116053;28;20403;-59
2022/08/08 00:41:54;;;;;;;1.05;0.55;;;;;;;;;;5114824;28;20034;-58
2022/08/08 00:44:38;;;;;;;1.33;0.75;;;;;;;;;;5115557;28;20055;-58
2022/08/08 00:47:23;;;;;;;1.20;0.70;;;;;;;;;;5097410;28;20016;-58
2022/08/08 00:50:10;;;;;;;1.67;1.02;;;;;;;;;;5115618;28;20073;-58
2022/08/08 00:52:52;;;;;;;1.73;0.90;;;;;;;;;;5116758;28;20076;-58
2022/08/08 00:55:40;;;;;;;3.53;1.10;;;;;;;;;;5116518;28;20079;-58
2022/08/08 00:58:16;;;;;;;1.52;0.93;;;;;;;;;;5116451;28;20054;-58
2022/08/08 01:01:02;;;;;;;2.83;0.95;;;;;;;;;;5115622;28;20035;-58
2022/08/08 01:03:31;;;;;;;2.03;0.90;;;;;;;;;;5099610;28;20032;-58
2022/08/08 01:06:17;;;;;;;1.58;0.70;;;;;;;;;;5097495;28;20063;-58
2022/08/08 01:08:53;;;;;;;;;;;;;;;;;;;;;
2022/08/08 01:11:54;;;;;;;1.63;1.00;;;;;;;;;;5099137;28;20389;-58
2022/08/08 01:14:48;;;;;;;1.77;0.90;;;;;;;;;;5114997;28;20020;-58
2022/08/08 01:17:20;;;;;;;1.98;0.90;;;;;;;;;;5115091;28;20122;-58
2022/08/08 01:20:16;;;;;;;2.15;0.80;;;;;;;;;;5110445;28;20040;-58
2022/08/08 01:23:07;;;;;;;2.10;0.63;;;;;;;;;;5022188;28;20476;-58
2022/08/08 01:25:55;;;;;;;1.65;0.80;;;;;;;;;;5094387;28;20033;-58
2022/08/08 01:28:37;;;;;;;2.10;1.13;;;;;;;;;;5094587;28;20035;-58
2022/08/08 01:31:28;;;;;;;1.60;0.80;;;;;;;;;;5094353;28;20037;-58
2022/08/08 01:34:13;;;;;;;1.65;0.90;;;;;;;;;;5094522;28;20047;-58
2022/08/08 01:37:17;;;;;;;;;;;;;;;;;;;;;
2022/08/08 01:40:11;;;;;;;1.77;1.00;;;;;;;;;;5094583;28;20032;-58
2022/08/08 01:43:14;;;;;;;2.10;1.05;;;;;;;;;;5093583;28;20085;-58
2022/08/08 01:45:41;;;;;;;1.55;0.95;;;;;;;;;;5052616;28;20107;-58
2022/08/08 01:48:35;;;;;;;1.60;0.73;;;;;;;;;;5094122;28;20032;-58
2022/08/08 01:51:23;;;;;;;1.58;0.88;;;;;;;;;;5093229;28;20024;-58
2022/08/08 01:54:19;;;;;;;1.67;1.00;;;;;;;;;;5093823;28;20020;-58
2022/08/08 01:57:03;;;;;;;1.50;0.82;;;;;;;;;;5058510;28;20028;-58
2022/08/08 02:00:11;;;;;;;2.10;0.73;;;;;;;;;;5075614;28;20445;-58
2022/08/08 02:02:58;;;;;;;2.88;0.80;;;;;;;;;;5037095;28;20036;-58
2022/08/08 02:05:58;;;;;;;1.90;0.90;;;;;;;;;;5094045;28;20046;-58
2022/08/08 02:08:52;;;;;;;1.85;0.82;;;;;;;;;;5095368;28;20381;-58
2022/08/08 02:11:53;;;;;;;1.85;0.75;;;;;;;;;;5094274;28;20031;-58
2022/08/08 02:14:20;;;;;;;1.45;0.80;;;;;;;;;;5012330;28;20030;-58
2022/08/08 02:17:08;;;;;;;1.42;0.75;;;;;;;;;;5012651;28;20119;-58
2022/08/08 02:20:07;;;;;;;1.98;1.00;;;;;;;;;;5015193;28;20046;-58
2022/08/08 02:23:01;;;;;;;1.83;1.00;;;;;;;;;;5045960;28;20486;-58
2022/08/08 02:25:50;;;;;;;1.80;0.98;;;;;;;;;;5093766;28;20066;-58
2022/08/08 02:28:54;;;;;;;2.37;1.17;;;;;;;;;;5082466;28;20039;-58
2022/08/08 02:32:03;;;;;;;1.60;0.88;;;;;;;;;;4994952;28;20046;-58
2022/08/08 02:34:54;;;;;;;2.13;1.10;;;;;;;;;;5043078;28;20127;-58
2022/08/08 02:37:39;;;;;;;1.55;0.60;;;;;;;;;;5094024;28;20036;-58
2022/08/08 02:40:06;;;;;;;1.63;0.88;;;;;;;;;;5094006;28;20521;-58
2022/08/08 02:46:17;;;;;;;2.85;1.15;;;;;;;;;;5080806;28;20062;-58
2022/08/08 02:49:09;;;;;;;1.83;0.93;;;;;;;;;;5094846;28;20040;-58
2022/08/08 02:52:14;;;;;;;1.40;0.95;;;;;;;;;;5075699;28;20126;-58
2022/08/08 02:55:19;;;;;;;2.50;1.05;;;;;;;;;;4992768;28;20023;-58
2022/08/08 02:57:51;;;;;;;1.67;1.13;;;;;;;;;;4990589;28;20049;-58
2022/08/08 03:00:47;;;;;;;2.55;1.20;;;;;;;;;;5070173;28;20097;-58
2022/08/08 03:03:45;;;;;;;1.60;0.77;;;;;;;;;;5093603;28;20028;-58
2022/08/08 03:06:11;;;;;;;1.75;1.00;;;;;;;;;;5093342;28;20040;-58
2022/08/08 03:09:14;;;;;;;2.35;1.38;;;;;;;;;;5093749;28;20036;-58
2022/08/08 03:12:02;;;;;;;3.70;1.58;;;;;;;;;;5093387;28;20032;-58
2022/08/08 03:14:46;;;;;;;1.70;1.10;;;;;;;;;;5093819;28;20025;-58
2022/08/08 03:17:23;;;;;;;2.17;1.33;;;;;;;;;;5094104;28;20409;-58
2022/08/08 03:20:17;;;;;;;2.17;1.20;;;;;;;;;;5097340;28;20051;-59
2022/08/08 03:25:58;;;;;;;2.10;1.15;;;;;;;;;;5106657;28;20372;-58
2022/08/08 03:28:49;;;;;;;1.55;0.95;;;;;;;;;;5096774;28;20036;-58
2022/08/08 03:34:36;;;;;;;1.83;1.25;;;;;;;;;;5080064;28;20042;-58
2022/08/08 03:37:16;;;;;;;3.00;1.27;;;;;;;;;;5114692;28;20597;-58
2022/08/08 03:42:52;;;;;;;3.03;1.52;;;;;;;;;;5108187;27;20048;-58
2022/08/08 03:45:43;;;;;;;1.77;1.10;;;;;;;;;;5136403;27;20012;-58
2022/08/08 03:48:15;;;;;;;2.58;1.63;;;;;;;;;;5136223;27;20051;-58
2022/08/08 03:51:11;;;;;;;;;;;;;;;;;;;;;
2022/08/08 03:53:38;;;;;;;2.20;1.35;;;;;;;;;;5114578;27;20026;-58
2022/08/08 03:59:12;;;;;;;3.47;2.28;;;;;;;;;;5120642;27;20050;-58
2022/08/08 04:01:47;;;;;;;3.88;1.80;;;;;;;;;;5125491;27;20027;-58
2022/08/08 04:04:36;;;;;;;3.33;2.15;;;;;;;;;;5106793;28;20214;-58
2022/08/08 04:07:11;;;;;;;2.78;1.35;;;;;;;;;;5113319;28;20024;-58
2022/08/08 04:09:40;;;;;;;4.25;1.52;;;;;;;;;;5121149;27;21416;-58
2022/08/08 04:12:20;;;;;;;;;;;;;;;;;;;;;
2022/08/08 04:15:12;;;;;;;4.82;2.17;;;;;;;;;;5111319;28;20032;-58
2022/08/08 04:17:51;;;;;;;3.53;1.70;;;;;;;;;;5089261;28;20587;-58
2022/08/08 04:20:29;;;;;;;2.95;1.88;;;;;;;;;;5102491;28;20044;-58
2022/08/08 04:23:04;;;;;;;4.68;2.08;;;;;;;;;;5100735;28;20020;-58
2022/08/08 04:25:47;;;;;;;2.63;2.00;;;;;;;;;;5102198;27;20027;-58
2022/08/08 04:28:27;;;;;;;2.65;1.73;;;;;;;;;;5126183;27;20037;-58
2022/08/08 04:31:07;;;;;;;;;;;;;;;;;;;;;
2022/08/08 04:33:41;;;;;;;4.57;2.03;;;;;;;;;;5106858;28;20024;-58
2022/08/08 04:36:37;;;;;;;3.15;2.08;;;;;;;;;;5096956;28;20400;-58
2022/08/08 04:39:33;;;;;;;3.78;2.10;;;;;;;;;;5116455;27;20076;-58
2022/08/08 04:42:24;;;;;;;3.45;1.88;;;;;;;;;;5113976;28;20035;-58
2022/08/08 04:44:56;;;;;;;2.97;2.03;;;;;;;;;;5031672;28;20446;-58
2022/08/08 04:50:39;;;;;;;3.28;2.22;;;;;;;;;;5054818;28;20116;-60
2022/08/08 04:53:29;;;;;;;3.08;1.98;;;;;;;;;;5020171;28;20064;-58
2022/08/08 04:56:04;;;;;;;2.85;1.88;;;;;;;;;;5047728;28;20069;-58
2022/08/08 04:58:59;;;;;;;2.75;2.00;;;;;;;;;;5094105;28;20481;-58
2022/08/08 05:01:37;;;;;;;2.97;1.92;;;;;;;;;;5091231;28;20038;-58
2022/08/08 05:04:15;;;;;;;3.05;1.80;;;;;;;;;;5088557;27;20068;-58
2022/08/08 05:06:59;;;;;;;3.20;1.77;;;;;;;;;;5126122;27;20027;-58
2022/08/08 05:09:35;;;;;;;3.75;2.10;;;;;;;;;;5134587;27;20052;-58
2022/08/08 05:12:11;;;;;;;4.78;2.35;;;;;;;;;;5114301;27;20374;-58
2022/08/08 05:20:47;;;;;;;2.85;2.05;;;;;;;;;;5114175;27;20043;-58
2022/08/08 05:23:18;;;;;;;3.05;2.00;;;;;;;;;;5096907;28;20020;-58
2022/08/08 05:26:24;;;;;;;2.90;1.95;;;;;;;;;;5122506;27;20015;-59
2022/08/08 05:28:54;;;;;;;2.45;1.77;;;;;;;;;;5134350;27;20517;-58
2022/08/08 05:31:32;;;;;;;2.97;2.03;;;;;;;;;;5133648;27;20022;-59
2022/08/08 05:34:33;;;;;;;3.17;1.85;;;;;;;;;;5116471;27;20476;-59
2022/08/08 05:37:20;;;;;;;3.17;2.15;;;;;;;;;;5127806;27;20058;-58
2022/08/08 05:39:52;;;;;;;3.13;2.13;;;;;;;;;;5124866;27;20063;-59
2022/08/08 05:42:59;;;;;;;3.13;1.85;;;;;;;;;;5116171;27;20023;-59
2022/08/08 05:45:44;;;;;;;3.60;2.10;;;;;;;;;;5122449;27;20031;-59
2022/08/08 05:48:36;;;;;;;2.97;1.90;;;;;;;;;;5111533;27;20027;-59
2022/08/08 05:51:10;;;;;;;3.00;1.80;;;;;;;;;;5090698;28;20490;-59
2022/08/08 05:53:42;;;;;;;3.13;2.25;;;;;;;;;;5115699;28;20028;-59
2022/08/08 05:56:14;;;;;;;3.30;1.67;;;;;;;;;;5096609;28;20111;-59
2022/08/08 05:59:03;;;;;;;2.75;1.23;;;;;;;;;;5117542;27;20026;-59
2022/08/08 06:01:29;;;;;;;3.13;1.50;;;;;;;;;;5115128;28;20024;-59
2022/08/08 06:04:09;;;;;;;5.00;1.80;;;;;;;;;;5113415;28;20028;-59
2022/08/08 06:06:42;;;;;;;2.15;1.70;;;;;;;;;;5094669;28;20028;-59
2022/08/08 06:09:22;;;;;;;2.03;1.50;;;;;;;;;;5094802;28;20100;-59
2022/08/08 06:11:55;;;;;;;2.88;1.58;;;;;;;;;;5102798;27;20031;-59
2022/08/08 06:14:42;;;;;;;2.88;1.77;;;;;;;;;;5122571;27;20431;-59
2022/08/08 06:17:28;;;;;;;2.38;1.73;;;;;;;;;;5094819;28;20465;-59
2022/08/08 06:20:15;;;;;;;2.72;1.60;;;;;;;;;;5090063;28;20051;-59
2022/08/08 06:22:48;;;;;;;2.05;1.55;;;;;;;;;;5116243;27;20111;-59
2022/08/08 06:25:21;;;;;;;4.25;2.08;;;;;;;;;;5127101;27;20071;-59
2022/08/08 06:28:25;;;;;;;2.97;1.88;;;;;;;;;;5136598;27;20027;-59
2022/08/08 06:31:29;;;;;;;7.65;1.77;;;;;;;;;;5120148;27;20029;-59
2022/08/08 06:34:02;;;;;;;2.38;1.80;;;;;;;;;;5131084;27;20031;-59
2022/08/08 06:42:38;;;;;;;2.58;1.67;;;;;;;;;;5135485;27;20033;-59
2022/08/08 06:45:28;;;;;;;;;;;;;;;;;;;;;
2022/08/08 06:48:07;;;;;;;2.60;1.87;;;;;;;;;;5131730;27;20031;-59
2022/08/08 06:50:33;;;;;;;2.45;1.60;;;;;;;;;;5120972;27;20289;-59
2022/08/08 06:53:15;;;;;;;3.75;2.45;;;;;;;;;;5126414;27;20369;-59
2022/08/08 06:55:42;;;;;;;3.97;2.45;;;;;;;;;;5118404;27;20052;-59
2022/08/08 06:59:00;;;;;;;;;;;;;;;;;;;;;
2022/08/08 07:01:12;;;;;;;2.63;1.70;;;;;;;;;;5121697;27;20415;-59
2022/08/08 07:04:15;;;;;;;2.38;1.77;;;;;;;;;;5112324;27;20035;-59
2022/08/08 07:06:51;;;;;;;3.22;2.30;;;;;;;;;;5127394;27;20087;-59
2022/08/08 07:12:21;;;;;;;3.10;2.35;;;;;;;;;;5130654;27;20039;-59
2022/08/08 07:15:07;;;;;;;3.17;2.28;;;;;;;;;;5139656;27;20031;-59
2022/08/08 07:18:02;;;;;;;3.85;2.33;;;;;;;;;;5129456;27;20023;-59
2022/08/08 07:20:55;;;;;;;2.67;2.20;;;;;;;;;;5111110;27;20381;-59
2022/08/08 07:23:45;;;;;;;7.72;2.42;;;;;;;;;;5134438;27;20031;-59
2022/08/08 07:26:16;;;;;;;4.38;2.83;;;;;;;;;;5138067;27;20053;-59
2022/08/08 07:28:58;;;;;;;2.97;2.15;;;;;;;;;;5138521;27;20075;-59
2022/08/08 07:31:48;;;;;;;3.53;2.30;;;;;;;;;;5134113;27;20019;-59
2022/08/08 07:34:26;;;;;;;3.05;2.35;;;;;;;;;;5127728;27;20035;-59
2022/08/08 07:37:21;;;;;;;11.52;2.50;;;;;;;;;;5119303;27;20031;-59
2022/08/08 07:39:51;;;;;;;5.05;3.45;;;;;;;;;;5119760;27;20042;-61
2022/08/08 07:42:31;;;;;;;2.40;1.50;;;;;;;;;;5134394;27;20023;-59
2022/08/08 07:45:07;;;;;;;2.47;2.00;;;;;;;;;;5087511;27;20027;-59
2022/08/08 07:47:53;;;;;;;2.83;2.17;;;;;;;;;;5123708;27;20026;-59
2022/08/08 07:50:36;;;;;;;7.80;2.97;;;;;;;;;;5111484;27;20046;-59
2022/08/08 07:53:21;;;;;;;3.33;2.35;;;;;;;;;;5083482;28;20052;-59
2022/08/08 07:55:53;;;;;;;2.00;1.60;;;;;;;;;;5117260;28;20032;-59
2022/08/08 07:58:46;;;;;;;3.38;2.22;;;;;;;;;;5117385;28;20408;-59
2022/08/08 08:01:35;;;;;;;5.05;2.40;;;;;;;;;;5114399;27;20118;-59
2022/08/08 08:04:22;;;;;;;2.70;2.10;;;;;;;;;;5122482;27;20035;-59
2022/08/08 08:06:52;;;;;;;4.88;2.38;;;;;;;;;;5137537;27;20023;-59
2022/08/08 08:09:26;;;;;;;2.40;1.58;;;;;;;;;;5112554;27;20473;-59
2022/08/08 08:11:58;;;;;;;2.83;2.00;;;;;;;;;;5093802;28;20512;-59
2022/08/08 08:14:47;;;;;;;2.28;1.95;;;;;;;;;;5078024;28;20040;-59
2022/08/08 08:17:19;;;;;;;2.92;1.80;;;;;;;;;;5103883;27;20460;-60
2022/08/08 08:20:02;;;;;;;2.50;1.77;;;;;;;;;;5108167;27;20031;-60
2022/08/08 08:22:40;;;;;;;3.42;2.13;;;;;;;;;;5124132;27;20098;-60
2022/08/08 08:25:12;;;;;;;2.22;1.60;;;;;;;;;;5095883;28;20031;-60
2022/08/08 08:27:44;;;;;;;2.78;1.90;;;;;;;;;;5096071;28;20024;-60
2022/08/08 08:30:15;;;;;;;3.92;1.77;;;;;;;;;;5117214;27;20027;-59
2022/08/08 08:33:00;;;;;;;2.67;1.95;;;;;;;;;;5125205;27;20019;-60
2022/08/08 08:35:53;;;;;;;3.63;1.92;;;;;;;;;;5132262;27;20060;-60
2022/08/08 08:38:44;;;;;;;2.45;1.60;;;;;;;;;;5128407;27;20043;-60
2022/08/08 08:41:31;;;;;;;2.45;1.70;;;;;;;;;;5104846;27;20615;-60
2022/08/08 08:44:01;;;;;;;3.25;2.00;;;;;;;;;;5120801;27;20034;-60
2022/08/08 08:46:30;;;;;;;2.38;1.60;;;;;;;;;;5119004;27;20071;-60
2022/08/08 08:49:03;;;;;;;3.17;1.70;;;;;;;;;;5119434;27;20070;-60
2022/08/08 08:51:31;;;;;;;3.88;2.38;;;;;;;;;;5095156;28;20161;-58
2022/08/08 08:54:13;;;;;;;2.92;1.75;;;;;;;;;;5069807;28;20390;-58
2022/08/08 08:56:56;;;;;;;2.90;2.00;;;;;;;;;;5094214;27;20477;-58
2022/08/08 08:59:29;;;;;;;2.95;2.17;;;;;;;;;;5099674;27;20484;-58
2022/08/08 09:02:10;;;;;;;2.45;1.92;;;;;;;;;;5115309;27;20130;-58
2022/08/08 09:04:48;;;;;;;2.47;1.83;;;;;;;;;;5132985;27;20068;-58
2022/08/08 09:07:22;;;;;;;2.75;1.85;;;;;;;;;;5134806;27;20488;-58
2022/08/08 09:10:07;;;;;;;2.40;1.67;;;;;;;;;;5101518;27;20039;-58
2022/08/08 09:12:34;;;;;;;4.28;2.20;;;;;;;;;;5131561;27;20019;-58
2022/08/08 09:15:06;;;;;;;2.75;2.22;;;;;;;;;;5129358;27;20085;-58
2022/08/08 09:17:41;;;;;;;2.47;1.73;;;;;;;;;;5096715;27;20416;-58
2022/08/08 09:20:11;;;;;;;2.80;1.77;;;;;;;;;;5120720;27;20023;-58
2022/08/08 09:22:46;;;;;;;2.28;1.50;;;;;;;;;;5120450;27;20059;-58
2022/08/08 09:25:21;;;;;;;3.15;2.15;;;;;;;;;;5128301;27;20023;-58
2022/08/08 09:27:48;;;;;;;3.28;2.00;;;;;;;;;;5130304;27;20039;-58
2022/08/08 09:30:19;;;;;;;2.45;1.70;;;;;;;;;;5119885;27;20639;-58
2022/08/08 09:32:50;;;;;;;2.30;1.63;;;;;;;;;;5117200;27;20027;-58
2022/08/08 09:35:27;;;;;;;3.80;1.85;;;;;;;;;;5128556;27;20448;-58
2022/08/08 09:38:04;;;;;;;3.22;1.52;;;;;;;;;;5115563;27;20019;-58
2022/08/08 09:40:35;;;;;;;3.28;2.38;;;;;;;;;;5095775;28;20626;-58
2022/08/08 09:43:03;;;;;;;3.60;1.90;;;;;;;;;;5093764;28;20031;-58
2022/08/08 09:45:48;;;;;;;2.50;1.70;;;;;;;;;;5124179;27;20020;-58
2022/08/08 09:48:20;;;;;;;2.47;1.83;;;;;;;;;;5099905;28;20155;-58
2022/08/08 09:51:04;;;;;;;3.20;1.88;;;;;;;;;;5091763;28;20107;-58
2022/08/08 09:53:41;;;;;;;3.78;1.85;;;;;;;;;;5092946;28;20516;-58
2022/08/08 09:56:12;;;;;;;3.25;2.08;;;;;;;;;;5092826;28;20493;-58
2022/08/08 09:58:55;;;;;;;3.00;1.90;;;;;;;;;;5092520;28;20484;-58
2022/08/08 10:01:22;;;;;;;2.30;1.75;;;;;;;;;;5120688;27;20142;-58
2022/08/08 10:03:54;;;;;;;2.78;1.40;;;;;;;;;;5120826;27;20027;-58
2022/08/08 10:06:21;;;;;;;3.15;1.50;;;;;;;;;;5128544;27;20122;-58
2022/08/08 10:08:51;;;;;;;2.25;1.38;;;;;;;;;;5115385;27;20091;-58
2022/08/08 10:11:18;;;;;;;1.70;1.10;;;;;;;;;;5114070;27;20131;-58
2022/08/08 10:14:09;;;;;;;2.13;1.42;;;;;;;;;;5120288;27;20056;-58
2022/08/08 10:16:39;;;;;;;2.50;1.58;;;;;;;;;;5129581;27;20042;-58
2022/08/08 10:19:11;;;;;;;3.60;2.00;;;;;;;;;;5114839;27;20019;-58
2022/08/08 10:21:49;;;;;;;3.58;1.70;;;;;;;;;;5112053;27;20397;-58
2022/08/08 10:24:21;;;;;;;2.10;1.20;;;;;;;;;;5112695;28;20118;-59
2022/08/08 10:26:48;;;;;;;2.17;1.17;;;;;;;;;;5107685;27;20105;-58
2022/08/08 10:29:17;;;;;;;2.53;1.17;;;;;;;;;;5124200;27;20024;-58
2022/08/08 10:34:42;;;;;;;1.90;1.35;;;;;;;;;;5133620;27;20132;-58
2022/08/08 10:37:20;;;;;;;1.88;1.27;;;;;;;;;;5132707;27;20023;-58
2022/08/08 10:39:50;;;;;;;1.63;1.08;;;;;;;;;;5126287;27;20036;-58
2022/08/08 10:42:21;;;;;;;2.42;1.70;;;;;;;;;;5099304;27;20028;-59
2022/08/08 10:45:05;;;;;;;2.85;1.75;;;;;;;;;;5121594;27;20038;-59
2022/08/08 10:47:42;;;;;;;2.15;1.48;;;;;;;;;;5097333;27;20096;-59
2022/08/08 10:50:09;;;;;;;2.40;1.55;;;;;;;;;;5132252;27;20031;-58
2022/08/08 10:52:41;;;;;;;2.60;1.42;;;;;;;;;;5106705;28;20036;-59
2022/08/08 10:55:13;;;;;;;1.77;1.10;;;;;;;;;;5102833;28;20465;-59
2022/08/08 10:57:40;;;;;;;2.45;1.35;;;;;;;;;;5108559;28;20039;-59
2022/08/08 11:00:09;;;;;;;3.78;1.20;;;;;;;;;;5123176;28;20042;-59
2022/08/08 11:02:39;;;;;;;1.60;1.00;;;;;;;;;;5098865;28;20397;-59
2022/08/08 11:05:20;;;;;;;2.47;1.40;;;;;;;;;;5107316;28;20444;-59
2022/08/08 11:07:52;;;;;;;2.10;1.48;;;;;;;;;;5113733;27;20511;-59
2022/08/08 11:10:21;;;;;;;1.88;1.20;;;;;;;;;;5097756;28;20412;-59
2022/08/08 11:12:55;;;;;;;1.70;1.00;;;;;;;;;;5103926;28;20362;-59
2022/08/08 11:15:26;;;;;;;2.35;1.05;;;;;;;;;;5132471;27;20027;-59
2022/08/08 11:17:56;;;;;;;1.48;0.95;;;;;;;;;;5132174;27;20037;-59
2022/08/08 11:20:23;;;;;;;2.38;1.17;;;;;;;;;;5101855;27;20031;-59
2022/08/08 11:22:53;;;;;;;3.05;1.23;;;;;;;;;;5123799;27;20158;-59
2022/08/08 11:25:24;;;;;;;2.08;1.55;;;;;;;;;;5132200;27;20019;-59
2022/08/08 11:27:52;;;;;;;1.55;1.00;;;;;;;;;;5113816;28;20050;-59
2022/08/08 11:30:27;;;;;;;2.17;1.48;;;;;;;;;;5131368;27;20030;-59
2022/08/08 11:32:59;;;;;;;1.48;0.90;;;;;;;;;;5111826;27;20072;-59
2022/08/08 11:35:31;;;;;;;2.80;1.42;;;;;;;;;;5115293;28;20312;-59
2022/08/08 11:38:06;;;;;;;1.95;1.20;;;;;;;;;;5101783;28;20024;-59
2022/08/08 11:40:34;;;;;;;1.92;1.27;;;;;;;;;;5110826;28;20035;-59
2022/08/08 11:43:11;;;;;;;2.13;1.17;;;;;;;;;;5093469;28;20020;-59
2022/08/08 11:45:41;;;;;;;1.83;1.23;;;;;;;;;;5111755;28;20019;-59
2022/08/08 11:48:13;;;;;;;2.67;1.45;;;;;;;;;;5111685;28;20027;-59
2022/08/08 11:50:50;;;;;;;1.98;1.23;;;;;;;;;;5103801;28;20411;-59
2022/08/08 11:53:23;;;;;;;2.20;1.30;;;;;;;;;;5090639;28;20493;-59
2022/08/08 11:56:11;;;;;;;3.60;2.70;;;;;;;;;;5091598;28;20033;-59
2022/08/08 11:58:41;;;;;;;1.98;1.23;;;;;;;;;;5094126;28;20032;-59
2022/08/08 12:01:07;;;;;;;4.88;1.40;;;;;;;;;;5105520;28;20034;-59
2022/08/08 12:03:48;;;;;;;2.25;1.08;;;;;;;;;;5106422;27;20016;-59
2022/08/08 12:06:20;;;;;;;1.80;1.20;;;;;;;;;;5108322;27;20023;-59
2022/08/08 12:09:04;;;;;;;1.90;1.02;;;;;;;;;;5115608;27;20015;-59
2022/08/08 12:11:37;;;;;;;2.22;1.20;;;;;;;;;;5118611;27;20027;-59
2022/08/08 12:14:03;;;;;;;2.80;1.33;;;;;;;;;;5096304;28;20479;-60
2022/08/08 12:16:33;;;;;;;1.73;1.00;;;;;;;;;;5113525;27;20484;-59
2022/08/08 12:19:13;;;;;;;2.07;1.33;;;;;;;;;;5108221;27;20473;-59
2022/08/08 12:21:39;;;;;;;2.45;1.55;;;;;;;;;;5100617;27;20350;-59
2022/08/08 12:24:16;;;;;;;1.67;1.02;;;;;;;;;;5094660;28;20457;-60
2022/08/08 12:26:50;;;;;;;2.15;1.00;;;;;;;;;;5076502;28;20020;-59
2022/08/08 12:29:29;;;;;;;5.20;1.30;;;;;;;;;;5094458;28;20030;-59
2022/08/08 12:32:10;;;;;;;1.70;1.08;;;;;;;;;;5086319;27;20480;-59
2022/08/08 12:34:41;;;;;;;1.50;0.85;;;;;;;;;;5120647;27;20465;-59
2022/08/08 12:37:09;;;;;;;1.05;0.70;;;;;;;;;;5114471;28;20373;-59
2022/08/08 12:39:46;;;;;;;2.28;1.20;;;;;;;;;;5096272;28;20042;-60
2022/08/08 12:42:15;;;;;;;5.47;1.48;;;;;;;;;;5096890;28;20032;-59
2022/08/08 12:44:41;;;;;;;2.45;1.13;;;;;;;;;;5094157;28;20108;-59
2022/08/08 12:47:08;;;;;;;1.80;1.20;;;;;;;;;;5117393;27;20020;-59
2022/08/08 12:49:37;;;;;;;1.00;0.60;;;;;;;;;;5126030;27;20623;-59
2022/08/08 12:52:07;;;;;;;1.60;0.90;;;;;;;;;;5101002;27;20024;-59
2022/08/08 12:54:37;;;;;;;2.05;1.13;;;;;;;;;;5093126;28;20542;-59
2022/08/08 12:57:08;;;;;;;;;;;;;;;;;;5094297;28;20028;-59
2022/08/08 12:59:50;;;;;;;2.05;1.08;;;;;;;;;;5076260;27;19926;-59
2022/08/08 13:02:26;;;;;;;4.03;1.77;;;;;;;;;;5102703;28;20024;-59
2022/08/08 13:04:56;;;;;;;2.35;1.05;;;;;;;;;;5130060;27;20047;-59
2022/08/08 13:07:33;;;;;;;1.85;1.15;;;;;;;;;;5104726;28;20061;-59
2022/08/08 13:10:06;;;;;;;2.00;1.10;;;;;;;;;;5082079;27;20050;-59
2022/08/08 13:12:37;;;;;;;2.60;1.33;;;;;;;;;;5090669;28;20085;-59
2022/08/08 13:15:08;;;;;;;2.67;1.55;;;;;;;;;;5087201;28;20042;-59
2022/08/08 13:17:38;;;;;;;1.92;1.13;;;;;;;;;;5111125;27;20102;-59
2022/08/08 13:20:07;;;;;;;;;;;;;;;;;;5083134;28;20035;-59
2022/08/08 13:22:37;;;;;;;1.98;1.17;;;;;;;;;;5114351;28;19990;-59
2022/08/08 13:25:03;;;;;;;1.70;1.07;;;;;;;;;;5113738;28;20051;-59
2022/08/08 13:27:30;;;;;;;2.17;1.25;;;;;;;;;;5077975;28;20103;-59
2022/08/08 13:30:00;;;;;;;1.58;0.80;;;;;;;;;;5074454;28;20051;-60
2022/08/08 13:32:27;;;;;;;1.35;0.88;;;;;;;;;;5099332;28;20108;-59
2022/08/08 13:34:55;;;;;;;2.63;1.10;;;;;;;;;;5133644;27;20023;-59
2022/08/08 13:37:25;;;;;;;3.50;1.80;;;;;;;;;;5134059;27;20064;-59
2022/08/08 13:39:54;;;;;;;4.32;1.10;;;;;;;;;;5114591;27;20039;-60
2022/08/08 13:42:30;;;;;;;1.45;0.95;;;;;;;;;;5079486;28;20107;-59
2022/08/08 13:45:00;;;;;;;2.40;1.60;;;;;;;;;;5100338;27;20019;-59
2022/08/08 13:47:26;;;;;;;;;;;;;;;;;;5109399;27;20055;-59
2022/08/08 13:49:59;;;;;;;3.40;1.30;;;;;;;;;;5114413;27;19940;-59
2022/08/08 13:52:25;;;;;;;1.70;0.98;;;;;;;;;;5107884;28;20472;-59
2022/08/08 13:54:56;;;;;;;2.03;1.15;;;;;;;;;;5112102;28;20019;-59
2022/08/08 13:57:25;;;;;;;2.42;1.17;;;;;;;;;;5111133;28;20019;-59
2022/08/08 13:59:51;;;;;;;3.07;1.23;;;;;;;;;;5091271;27;20027;-59
2022/08/08 14:02:27;;;;;;;5.03;1.25;;;;;;;;;;5089525;27;20026;-60
2022/08/08 14:04:54;;;;;;;1.95;1.10;;;;;;;;;;5102474;28;20072;-60
2022/08/08 14:07:24;;;;;;;3.00;0.98;;;;;;;;;;5098370;28;20117;-60
2022/08/08 14:09:50;;;;;;;2.35;1.13;;;;;;;;;;5097824;27;20129;-59
2022/08/08 14:12:17;;;;;;;2.13;1.25;;;;;;;;;;5089274;28;20122;-59
2022/08/08 14:14:48;;;;;;;2.20;1.10;;;;;;;;;;5075657;28;20484;-60
2022/08/08 14:17:14;;;;;;;1.88;1.10;;;;;;;;;;5079669;28;20020;-60
2022/08/08 14:19:45;;;;;;;1.92;1.00;;;;;;;;;;5090483;28;20607;-59
2022/08/08 14:22:29;;;;;;;2.38;1.25;;;;;;;;;;5091786;28;20038;-59
2022/08/08 14:24:56;;;;;;;2.15;1.25;;;;;;;;;;5111943;27;20039;-59
2022/08/08 14:27:22;;;;;;;2.00;1.17;;;;;;;;;;5094180;28;20024;-59
2022/08/08 14:29:52;;;;;;;2.38;1.33;;;;;;;;;;5111643;28;20146;-60
2022/08/08 14:32:20;;;;;;;2.15;1.27;;;;;;;;;;5087340;28;20028;-59
2022/08/08 14:34:55;;;;;;;1.83;1.08;;;;;;;;;;5093031;28;20035;-59
2022/08/08 14:37:22;;;;;;;1.73;1.13;;;;;;;;;;5115378;27;20020;-60
2022/08/08 14:39:58;;;;;;;3.25;1.75;;;;;;;;;;5122081;27;20096;-59
2022/08/08 14:42:36;;;;;;;2.08;1.42;;;;;;;;;;5119715;27;20378;-60
2022/08/08 14:45:09;;;;;;;3.65;1.55;;;;;;;;;;5074141;28;20028;-59
2022/08/08 14:47:51;;;;;;;1.83;1.00;;;;;;;;;;5092176;28;20024;-59
2022/08/08 14:50:33;;;;;;;1.88;1.00;;;;;;;;;;5079500;28;20054;-59
2022/08/08 14:53:03;;;;;;;2.20;1.25;;;;;;;;;;5093883;28;20035;-60
2022/08/08 14:55:30;;;;;;;1.73;1.15;;;;;;;;;;5092006;28;20462;-59
2022/08/08 14:57:57;;;;;;;2.67;1.40;;;;;;;;;;5057004;28;20028;-60
2022/08/08 15:00:24;;;;;;;1.70;0.98;;;;;;;;;;5095495;28;20250;-60
2022/08/08 15:02:52;;;;;;;3.42;1.50;;;;;;;;;;5089550;28;20020;-60
2022/08/08 15:05:20;;;;;;;2.63;1.33;;;;;;;;;;5113087;28;20078;-60
2022/08/08 15:07:46;;;;;;;2.00;1.10;;;;;;;;;;5122042;28;20464;-60
2022/08/08 15:10:15;;;;;;;2.42;1.55;;;;;;;;;;5127992;27;20077;-59
2022/08/08 15:12:43;;;;;;;3.28;1.77;;;;;;;;;;5112246;28;20443;-59
2022/08/08 15:15:10;;;;;;;1.85;1.23;;;;;;;;;;5093793;28;20035;-59
2022/08/08 15:17:40;;;;;;;1.35;0.88;;;;;;;;;;5103898;28;20024;-59
2022/08/08 15:20:06;;;;;;;1.83;1.10;;;;;;;;;;5120293;28;20449;-60
2022/08/08 15:22:35;;;;;;;2.35;1.15;;;;;;;;;;5112079;28;20030;-59
2022/08/08 15:25:05;;;;;;;1.98;1.10;;;;;;;;;;5093733;28;20197;-60
2022/08/08 15:27:34;;;;;;;1.95;1.00;;;;;;;;;;5111929;28;20042;-59
2022/08/08 15:30:06;;;;;;;1.70;1.05;;;;;;;;;;5091559;28;20019;-60
2022/08/08 15:32:35;;;;;;;1.60;1.00;;;;;;;;;;5096881;27;20072;-59
2022/08/08 15:35:01;;;;;;;1.58;1.05;;;;;;;;;;5110414;27;20023;-58
2022/08/08 15:37:29;;;;;;;1.60;0.80;;;;;;;;;;5136372;27;20050;-59
2022/08/08 15:39:57;;;;;;;1.60;1.08;;;;;;;;;;5135645;27;20407;-58
2022/08/08 15:42:23;;;;;;;2.05;1.10;;;;;;;;;;5089243;28;20024;-58
2022/08/08 15:44:49;;;;;;;1.65;1.00;;;;;;;;;;5103620;28;20024;-59
2022/08/08 15:47:16;;;;;;;1.85;0.93;;;;;;;;;;5115475;28;20023;-59
2022/08/08 15:49:45;;;;;;;0.77;0.47;;;;;;;;;;5115502;28;20032;-59
2022/08/08 15:52:13;;;;;;;2.72;1.38;;;;;;;;;;5079612;28;20039;-59
2022/08/08 15:54:42;;;;;;;2.20;1.23;;;;;;;;;;5092922;28;20465;-58
2022/08/08 15:57:09;;;;;;;2.10;1.23;;;;;;;;;;5099001;28;20024;-58
2022/08/08 15:59:35;;;;;;;2.00;1.10;;;;;;;;;;5121553;27;20047;-60
2022/08/08 16:02:08;;;;;;;2.13;1.13;;;;;;;;;;5102857;27;20029;-60
2022/08/08 16:04:38;;;;;;;2.00;1.10;;;;;;;;;;5092509;28;20024;-60
2022/08/08 16:07:07;;;;;;;1.55;0.95;;;;;;;;;;5090401;28;20024;-60
2022/08/08 16:09:38;;;;;;;1.50;0.80;;;;;;;;;;5101310;27;20365;-60
2022/08/08 16:12:05;;;;;;;1.70;1.00;;;;;;;;;;5096555;28;20419;-60
2022/08/08 16:14:33;;;;;;;1.40;0.93;;;;;;;;;;5101530;27;20084;-60
2022/08/08 16:17:00;;;;;;;1.10;0.60;;;;;;;;;;5118355;27;20080;-60
2022/08/08 16:19:28;;;;;;;1.60;0.90;;;;;;;;;;5117535;27;20041;-60
2022/08/08 16:21:54;;;;;;;1.48;0.90;;;;;;;;;;5098230;27;20020;-60
2022/08/08 16:24:21;;;;;;;1.10;0.70;;;;;;;;;;5114086;27;20055;-60
2022/08/08 16:26:48;;;;;;;2.20;0.90;;;;;;;;;;5112516;28;20032;-60
2022/08/08 16:29:16;;;;;;;2.08;0.82;;;;;;;;;;5094860;28;20403;-60
2022/08/08 16:31:44;;;;;;;1.77;1.05;;;;;;;;;;5106282;27;20058;-60